메인 페이지
METAR-TAF:

METAR-TAF

공항 :

상파울루 콩고냐스 공항

상파울루, 상파울루, 브라질

위도: 23-37S, 경도: 046-39W, 고도: 803m

현재 날씨관측

예보는 18분 전, 21:00시(UTC)에 발표되었습니다.
남남동9kt
온도 17°C
습도 72%
기압 1027 hPa
시정: 7000m

METAR: SBSP 062100Z 16009KT 7000 NSC 17/12 Q1027

시각: 18:18 (21:18 UTC)

예보

예보는 5 시간 5분 전, 16:13시(UTC)에 발표되었습니다.
예보 대상 시간: 06일 18시부터 07일 06시까지 (UTC)
남남동7kt
시정 10km 이상
1500m 미만 상공 구름 및 적란운 없음
전환 중
06일 19시부터 06일 21시까지 (UTC)
시정: 8000m
고도 1700ft 상공 구름 조금
전환 중
06일 21시부터 06일 23시까지 (UTC)
고도 1100ft 상공 구름 많음
전환 중
07일 00시부터 07일 02시까지 (UTC)
고도 1000ft 상공 구름 조금
전환 중
07일 03시부터 07일 05시까지 (UTC)
남동5kt

TAF: SBSP 061613Z 0618/0706 16007KT CAVOK TX24/0618Z TN12/0705Z BECMG 0619/0621 8000 FEW017 BECMG 0621/0623 BKN011 BECMG 0700/0702 FEW010 BECMG 0703/0705 14005KT RMK PGO

4,000개 이상의 공항 관측 자료 및 예보 (METAR 및 TAF 보고).

지도상에서 검색 가능한 기상관측소가 노란 점과 빨간 점으로 표시되어 있습니다.

기상관측소 명을 보려면 표시 위로 마우스를 이동하세요.

날씨 관측과 예보를 보려면 클릭하세요.

지도 변경 : 확대하려면 엑스 표시가 있는 녹색 버튼, 축소하려면 빼기 표시가 있는 녹색 버튼, 다음 페이지의 지도를 보려면 녹색 화살표를 클릭하세요.


METAR-TAF: